sensor_id;sensor_type;location;lat;lon;timestamp;P1;durP1;ratioP1;P2;durP2;ratioP2
22425;SDS011;11380;50.822;15.790;2023-06-22T00:01:58;74.20;;;60.50;;
22425;SDS011;11380;50.822;15.790;2023-06-22T00:07:06;72.83;;;59.27;;
22425;SDS011;11380;50.822;15.790;2023-06-22T00:12:13;73.93;;;59.83;;
22425;SDS011;11380;50.822;15.790;2023-06-22T00:17:20;75.20;;;59.63;;
22425;SDS011;11380;50.822;15.790;2023-06-22T00:22:27;74.90;;;60.17;;
22425;SDS011;11380;50.822;15.790;2023-06-22T00:27:34;72.37;;;59.27;;
22425;SDS011;11380;50.822;15.790;2023-06-22T00:32:42;73.05;;;59.65;;
22425;SDS011;11380;50.822;15.790;2023-06-22T00:37:49;75.63;;;59.87;;
22425;SDS011;11380;50.822;15.790;2023-06-22T00:42:58;74.60;;;59.33;;
22425;SDS011;11380;50.822;15.790;2023-06-22T00:48:06;75.97;;;59.23;;
22425;SDS011;11380;50.822;15.790;2023-06-22T00:53:14;74.97;;;59.60;;
22425;SDS011;11380;50.822;15.790;2023-06-22T00:58:22;71.92;;;58.28;;
22425;SDS011;11380;50.822;15.790;2023-06-22T01:03:29;73.37;;;58.98;;
22425;SDS011;11380;50.822;15.790;2023-06-22T01:08:57;74.50;;;59.35;;
22425;SDS011;11380;50.822;15.790;2023-06-22T01:14:15;72.93;;;59.20;;
22425;SDS011;11380;50.822;15.790;2023-06-22T01:35:25;73.80;;;58.55;;
22425;SDS011;11380;50.822;15.790;2023-06-22T01:40:32;72.40;;;58.75;;
22425;SDS011;11380;50.822;15.790;2023-06-22T01:45:39;72.67;;;59.40;;
22425;SDS011;11380;50.822;15.790;2023-06-22T01:50:47;73.87;;;59.07;;
22425;SDS011;11380;50.822;15.790;2023-06-22T01:55:55;74.07;;;58.97;;
22425;SDS011;11380;50.822;15.790;2023-06-22T02:06:21;72.62;;;58.95;;
22425;SDS011;11380;50.822;15.790;2023-06-22T02:11:32;72.60;;;58.70;;
22425;SDS011;11380;50.822;15.790;2023-06-22T02:16:44;73.55;;;59.25;;
22425;SDS011;11380;50.822;15.790;2023-06-22T02:21:52;72.77;;;59.93;;
22425;SDS011;11380;50.822;15.790;2023-06-22T02:26:59;76.30;;;60.13;;
22425;SDS011;11380;50.822;15.790;2023-06-22T02:32:08;72.35;;;59.45;;
22425;SDS011;11380;50.822;15.790;2023-06-22T02:37:15;74.13;;;59.00;;
22425;SDS011;11380;50.822;15.790;2023-06-22T02:42:22;73.27;;;58.63;;
22425;SDS011;11380;50.822;15.790;2023-06-22T02:47:28;72.60;;;59.33;;
22425;SDS011;11380;50.822;15.790;2023-06-22T02:52:35;72.53;;;59.25;;
22425;SDS011;11380;50.822;15.790;2023-06-22T02:57:43;70.17;;;58.03;;
22425;SDS011;11380;50.822;15.790;2023-06-22T03:02:52;76.00;;;58.83;;
22425;SDS011;11380;50.822;15.790;2023-06-22T03:07:59;76.10;;;59.40;;
22425;SDS011;11380;50.822;15.790;2023-06-22T03:13:06;73.20;;;58.67;;
22425;SDS011;11380;50.822;15.790;2023-06-22T03:18:13;72.60;;;58.90;;
22425;SDS011;11380;50.822;15.790;2023-06-22T03:23:19;72.83;;;59.10;;
22425;SDS011;11380;50.822;15.790;2023-06-22T03:28:26;76.67;;;59.98;;
22425;SDS011;11380;50.822;15.790;2023-06-22T03:33:33;72.47;;;59.10;;
22425;SDS011;11380;50.822;15.790;2023-06-22T03:38:41;72.53;;;58.77;;
22425;SDS011;11380;50.822;15.790;2023-06-22T03:43:48;71.50;;;58.50;;
22425;SDS011;11380;50.822;15.790;2023-06-22T03:48:56;72.83;;;58.17;;
22425;SDS011;11380;50.822;15.790;2023-06-22T03:54:04;75.90;;;59.53;;
22425;SDS011;11380;50.822;15.790;2023-06-22T03:59:11;74.37;;;60.20;;
22425;SDS011;11380;50.822;15.790;2023-06-22T04:04:18;77.70;;;59.97;;
22425;SDS011;11380;50.822;15.790;2023-06-22T04:09:26;73.00;;;59.90;;
22425;SDS011;11380;50.822;15.790;2023-06-22T04:14:32;72.83;;;59.70;;
22425;SDS011;11380;50.822;15.790;2023-06-22T04:19:40;75.42;;;60.33;;
22425;SDS011;11380;50.822;15.790;2023-06-22T04:24:47;80.27;;;60.10;;
22425;SDS011;11380;50.822;15.790;2023-06-22T04:29:55;72.93;;;59.73;;
22425;SDS011;11380;50.822;15.790;2023-06-22T04:35:04;76.20;;;61.07;;
22425;SDS011;11380;50.822;15.790;2023-06-22T04:40:13;73.85;;;60.48;;
22425;SDS011;11380;50.822;15.790;2023-06-22T04:45:20;75.40;;;61.30;;
22425;SDS011;11380;50.822;15.790;2023-06-22T04:50:27;79.17;;;61.00;;
22425;SDS011;11380;50.822;15.790;2023-06-22T04:55:34;77.47;;;61.75;;
22425;SDS011;11380;50.822;15.790;2023-06-22T05:00:42;75.57;;;61.30;;
22425;SDS011;11380;50.822;15.790;2023-06-22T05:05:49;77.57;;;61.07;;
22425;SDS011;11380;50.822;15.790;2023-06-22T05:10:57;77.73;;;61.10;;
22425;SDS011;11380;50.822;15.790;2023-06-22T05:16:06;76.30;;;61.30;;
22425;SDS011;11380;50.822;15.790;2023-06-22T05:21:14;76.10;;;60.53;;
22425;SDS011;11380;50.822;15.790;2023-06-22T05:26:21;77.20;;;61.53;;
22425;SDS011;11380;50.822;15.790;2023-06-22T05:31:29;76.73;;;61.43;;
22425;SDS011;11380;50.822;15.790;2023-06-22T05:36:35;78.23;;;62.97;;
22425;SDS011;11380;50.822;15.790;2023-06-22T05:41:42;84.87;;;63.40;;
22425;SDS011;11380;50.822;15.790;2023-06-22T05:46:50;84.27;;;64.73;;
22425;SDS011;11380;50.822;15.790;2023-06-22T05:51:57;85.65;;;65.08;;
22425;SDS011;11380;50.822;15.790;2023-06-22T05:57:04;79.37;;;63.37;;
22425;SDS011;11380;50.822;15.790;2023-06-22T06:02:11;80.37;;;64.00;;
22425;SDS011;11380;50.822;15.790;2023-06-22T06:07:18;81.37;;;64.33;;
22425;SDS011;11380;50.822;15.790;2023-06-22T06:12:25;80.80;;;63.90;;
22425;SDS011;11380;50.822;15.790;2023-06-22T06:17:32;80.47;;;63.57;;
22425;SDS011;11380;50.822;15.790;2023-06-22T06:22:39;81.93;;;64.40;;
22425;SDS011;11380;50.822;15.790;2023-06-22T06:27:47;80.53;;;64.40;;
22425;SDS011;11380;50.822;15.790;2023-06-22T06:32:55;82.10;;;63.80;;
22425;SDS011;11380;50.822;15.790;2023-06-22T06:38:02;87.97;;;64.13;;
22425;SDS011;11380;50.822;15.790;2023-06-22T06:43:09;80.90;;;64.07;;
22425;SDS011;11380;50.822;15.790;2023-06-22T06:48:15;80.63;;;63.57;;
22425;SDS011;11380;50.822;15.790;2023-06-22T06:53:22;80.82;;;63.94;;
22425;SDS011;11380;50.822;15.790;2023-06-22T06:58:28;81.17;;;63.20;;
22425;SDS011;11380;50.822;15.790;2023-06-22T07:03:35;80.80;;;63.80;;
22425;SDS011;11380;50.822;15.790;2023-06-22T07:08:42;81.50;;;64.03;;
22425;SDS011;11380;50.822;15.790;2023-06-22T07:13:49;81.85;;;65.30;;
22425;SDS011;11380;50.822;15.790;2023-06-22T07:18:56;81.93;;;64.93;;
22425;SDS011;11380;50.822;15.790;2023-06-22T07:24:04;82.03;;;64.17;;
22425;SDS011;11380;50.822;15.790;2023-06-22T07:29:11;82.17;;;64.60;;
22425;SDS011;11380;50.822;15.790;2023-06-22T07:34:19;81.67;;;64.27;;
22425;SDS011;11380;50.822;15.790;2023-06-22T07:39:26;80.97;;;63.63;;
22425;SDS011;11380;50.822;15.790;2023-06-22T07:44:32;82.65;;;64.12;;
22425;SDS011;11380;50.822;15.790;2023-06-22T07:49:40;84.47;;;64.45;;
22425;SDS011;11380;50.822;15.790;2023-06-22T07:54:47;80.97;;;64.00;;
22425;SDS011;11380;50.822;15.790;2023-06-22T07:59:54;80.80;;;64.00;;
22425;SDS011;11380;50.822;15.790;2023-06-22T08:05:00;83.50;;;64.30;;
22425;SDS011;11380;50.822;15.790;2023-06-22T08:10:11;82.43;;;64.13;;
22425;SDS011;11380;50.822;15.790;2023-06-22T08:15:19;83.60;;;65.35;;
22425;SDS011;11380;50.822;15.790;2023-06-22T08:20:26;82.27;;;64.05;;
22425;SDS011;11380;50.822;15.790;2023-06-22T08:25:33;83.60;;;64.77;;
22425;SDS011;11380;50.822;15.790;2023-06-22T08:30:41;81.37;;;64.30;;
22425;SDS011;11380;50.822;15.790;2023-06-22T08:35:47;82.53;;;64.30;;
22425;SDS011;11380;50.822;15.790;2023-06-22T08:40:54;82.57;;;64.60;;
22425;SDS011;11380;50.822;15.790;2023-06-22T08:46:01;81.90;;;64.00;;
22425;SDS011;11380;50.822;15.790;2023-06-22T08:51:08;82.87;;;64.53;;
22425;SDS011;11380;50.822;15.790;2023-06-22T08:56:15;82.73;;;64.63;;
22425;SDS011;11380;50.822;15.790;2023-06-22T09:01:22;83.77;;;64.40;;
22425;SDS011;11380;50.822;15.790;2023-06-22T09:06:28;81.30;;;64.27;;
22425;SDS011;11380;50.822;15.790;2023-06-22T09:11:35;82.90;;;64.20;;
22425;SDS011;11380;50.822;15.790;2023-06-22T09:16:43;82.23;;;64.17;;
22425;SDS011;11380;50.822;15.790;2023-06-22T09:21:49;82.13;;;64.03;;
22425;SDS011;11380;50.822;15.790;2023-06-22T09:26:56;80.77;;;63.77;;
22425;SDS011;11380;50.822;15.790;2023-06-22T09:32:04;79.97;;;63.43;;
22425;SDS011;11380;50.822;15.790;2023-06-22T09:37:12;83.70;;;63.97;;
22425;SDS011;11380;50.822;15.790;2023-06-22T09:42:20;83.40;;;63.80;;
22425;SDS011;11380;50.822;15.790;2023-06-22T09:47:27;81.53;;;63.52;;
22425;SDS011;11380;50.822;15.790;2023-06-22T09:52:35;81.15;;;63.87;;
22425;SDS011;11380;50.822;15.790;2023-06-22T09:57:43;81.17;;;63.13;;
22425;SDS011;11380;50.822;15.790;2023-06-22T10:02:50;81.10;;;63.50;;
22425;SDS011;11380;50.822;15.790;2023-06-22T10:07:57;81.67;;;63.27;;
22425;SDS011;11380;50.822;15.790;2023-06-22T10:13:15;82.20;;;63.17;;
22425;SDS011;11380;50.822;15.790;2023-06-22T10:18:16;81.53;;;64.22;;
22425;SDS011;11380;50.822;15.790;2023-06-22T10:23:23;82.72;;;63.04;;
22425;SDS011;11380;50.822;15.790;2023-06-22T10:28:29;83.43;;;64.10;;
22425;SDS011;11380;50.822;15.790;2023-06-22T10:33:36;84.13;;;65.13;;
22425;SDS011;11380;50.822;15.790;2023-06-22T10:38:44;82.63;;;64.40;;
22425;SDS011;11380;50.822;15.790;2023-06-22T10:43:51;84.90;;;65.60;;
22425;SDS011;11380;50.822;15.790;2023-06-22T10:49:00;82.37;;;64.33;;
22425;SDS011;11380;50.822;15.790;2023-06-22T10:54:07;86.70;;;65.37;;
22425;SDS011;11380;50.822;15.790;2023-06-22T10:59:13;83.87;;;63.43;;
22425;SDS011;11380;50.822;15.790;2023-06-22T11:04:21;81.57;;;63.93;;
22425;SDS011;11380;50.822;15.790;2023-06-22T11:09:27;84.97;;;64.72;;
22425;SDS011;11380;50.822;15.790;2023-06-22T11:14:34;84.40;;;65.63;;
22425;SDS011;11380;50.822;15.790;2023-06-22T11:19:41;84.10;;;64.93;;
22425;SDS011;11380;50.822;15.790;2023-06-22T11:24:48;82.93;;;63.63;;
22425;SDS011;11380;50.822;15.790;2023-06-22T11:29:55;82.30;;;63.80;;
22425;SDS011;11380;50.822;15.790;2023-06-22T11:35:02;86.30;;;64.87;;
22425;SDS011;11380;50.822;15.790;2023-06-22T11:40:10;83.67;;;65.30;;
22425;SDS011;11380;50.822;15.790;2023-06-22T11:45:18;84.00;;;65.30;;
22425;SDS011;11380;50.822;15.790;2023-06-22T11:50:25;83.78;;;64.65;;
22425;SDS011;11380;50.822;15.790;2023-06-22T11:55:35;82.57;;;65.27;;
22425;SDS011;11380;50.822;15.790;2023-06-22T12:00:42;83.90;;;64.97;;
22425;SDS011;11380;50.822;15.790;2023-06-22T12:05:51;84.33;;;64.50;;
22425;SDS011;11380;50.822;15.790;2023-06-22T12:10:58;83.73;;;65.80;;
22425;SDS011;11380;50.822;15.790;2023-06-22T12:16:04;82.97;;;64.90;;
22425;SDS011;11380;50.822;15.790;2023-06-22T12:21:11;85.07;;;65.00;;
22425;SDS011;11380;50.822;15.790;2023-06-22T12:26:19;84.30;;;65.96;;
22425;SDS011;11380;50.822;15.790;2023-06-22T12:31:26;84.33;;;66.10;;
22425;SDS011;11380;50.822;15.790;2023-06-22T12:36:34;86.30;;;66.43;;
22425;SDS011;11380;50.822;15.790;2023-06-22T12:41:41;84.57;;;65.30;;
22425;SDS011;11380;50.822;15.790;2023-06-22T12:46:49;83.97;;;65.97;;
22425;SDS011;11380;50.822;15.790;2023-06-22T12:51:56;86.57;;;67.17;;
22425;SDS011;11380;50.822;15.790;2023-06-22T12:57:03;84.30;;;66.43;;
22425;SDS011;11380;50.822;15.790;2023-06-22T13:02:10;84.50;;;66.90;;
22425;SDS011;11380;50.822;15.790;2023-06-22T13:07:18;85.95;;;66.82;;
22425;SDS011;11380;50.822;15.790;2023-06-22T13:12:26;86.80;;;66.23;;
22425;SDS011;11380;50.822;15.790;2023-06-22T13:17:33;85.13;;;66.97;;
22425;SDS011;11380;50.822;15.790;2023-06-22T13:22:40;84.37;;;66.83;;
22425;SDS011;11380;50.822;15.790;2023-06-22T13:27:47;83.85;;;66.35;;
22425;SDS011;11380;50.822;15.790;2023-06-22T13:32:54;87.10;;;67.40;;
22425;SDS011;11380;50.822;15.790;2023-06-22T13:38:01;84.37;;;66.40;;
22425;SDS011;11380;50.822;15.790;2023-06-22T13:43:08;85.77;;;66.73;;
22425;SDS011;11380;50.822;15.790;2023-06-22T13:48:15;87.60;;;67.63;;
22425;SDS011;11380;50.822;15.790;2023-06-22T13:53:21;84.97;;;67.77;;
22425;SDS011;11380;50.822;15.790;2023-06-22T13:58:30;85.22;;;66.95;;
22425;SDS011;11380;50.822;15.790;2023-06-22T14:03:37;87.88;;;66.95;;
22425;SDS011;11380;50.822;15.790;2023-06-22T14:08:44;84.33;;;65.83;;
22425;SDS011;11380;50.822;15.790;2023-06-22T14:13:51;85.70;;;67.13;;
22425;SDS011;11380;50.822;15.790;2023-06-22T14:18:58;85.10;;;67.00;;
22425;SDS011;11380;50.822;15.790;2023-06-22T14:24:06;85.97;;;67.47;;
22425;SDS011;11380;50.822;15.790;2023-06-22T14:29:13;86.03;;;66.57;;
22425;SDS011;11380;50.822;15.790;2023-06-22T14:34:20;86.77;;;67.80;;
22425;SDS011;11380;50.822;15.790;2023-06-22T14:39:27;87.50;;;67.73;;
22425;SDS011;11380;50.822;15.790;2023-06-22T14:44:34;85.75;;;66.67;;
22425;SDS011;11380;50.822;15.790;2023-06-22T14:49:41;85.53;;;66.90;;
22425;SDS011;11380;50.822;15.790;2023-06-22T14:54:48;86.90;;;67.20;;
22425;SDS011;11380;50.822;15.790;2023-06-22T14:59:56;87.53;;;66.40;;
22425;SDS011;11380;50.822;15.790;2023-06-22T15:05:04;86.63;;;66.83;;
22425;SDS011;11380;50.822;15.790;2023-06-22T15:10:11;82.97;;;66.13;;
22425;SDS011;11380;50.822;15.790;2023-06-22T15:15:19;84.90;;;65.75;;
22425;SDS011;11380;50.822;15.790;2023-06-22T15:20:26;84.40;;;66.67;;
22425;SDS011;11380;50.822;15.790;2023-06-22T15:25:33;85.20;;;66.35;;
22425;SDS011;11380;50.822;15.790;2023-06-22T15:30:43;87.40;;;68.10;;
22425;SDS011;11380;50.822;15.790;2023-06-22T15:35:51;88.07;;;66.67;;
22425;SDS011;11380;50.822;15.790;2023-06-22T15:41:00;84.60;;;66.60;;
22425;SDS011;11380;50.822;15.790;2023-06-22T15:46:07;84.83;;;66.40;;
22425;SDS011;11380;50.822;15.790;2023-06-22T15:51:14;83.55;;;65.35;;
22425;SDS011;11380;50.822;15.790;2023-06-22T15:56:20;85.33;;;65.60;;
22425;SDS011;11380;50.822;15.790;2023-06-22T16:01:29;83.92;;;67.58;;
22425;SDS011;11380;50.822;15.790;2023-06-22T16:06:36;82.97;;;65.80;;
22425;SDS011;11380;50.822;15.790;2023-06-22T16:11:43;83.83;;;65.87;;
22425;SDS011;11380;50.822;15.790;2023-06-22T16:16:50;86.08;;;67.03;;
22425;SDS011;11380;50.822;15.790;2023-06-22T16:21:57;86.40;;;68.20;;
22425;SDS011;11380;50.822;15.790;2023-06-22T16:27:06;87.27;;;67.47;;
22425;SDS011;11380;50.822;15.790;2023-06-22T16:32:12;86.60;;;67.07;;
22425;SDS011;11380;50.822;15.790;2023-06-22T16:37:20;86.67;;;66.77;;
22425;SDS011;11380;50.822;15.790;2023-06-22T16:42:26;83.42;;;65.50;;
22425;SDS011;11380;50.822;15.790;2023-06-22T16:47:33;90.00;;;66.60;;
22425;SDS011;11380;50.822;15.790;2023-06-22T16:52:41;84.42;;;67.20;;
22425;SDS011;11380;50.822;15.790;2023-06-22T16:57:51;84.50;;;65.72;;
22425;SDS011;11380;50.822;15.790;2023-06-22T17:03:02;83.33;;;65.67;;
22425;SDS011;11380;50.822;15.790;2023-06-22T17:08:13;82.50;;;65.05;;
22425;SDS011;11380;50.822;15.790;2023-06-22T17:13:24;85.95;;;66.50;;
22425;SDS011;11380;50.822;15.790;2023-06-22T17:18:31;83.07;;;66.07;;
22425;SDS011;11380;50.822;15.790;2023-06-22T17:23:39;81.73;;;64.67;;
22425;SDS011;11380;50.822;15.790;2023-06-22T17:28:47;84.67;;;66.53;;
22425;SDS011;11380;50.822;15.790;2023-06-22T17:33:56;87.10;;;66.40;;
22425;SDS011;11380;50.822;15.790;2023-06-22T17:39:04;83.83;;;66.50;;
22425;SDS011;11380;50.822;15.790;2023-06-22T17:44:12;85.10;;;66.72;;
22425;SDS011;11380;50.822;15.790;2023-06-22T17:49:28;83.40;;;64.77;;
22425;SDS011;11380;50.822;15.790;2023-06-22T17:54:36;85.37;;;66.40;;
22425;SDS011;11380;50.822;15.790;2023-06-22T17:59:47;86.90;;;66.37;;
22425;SDS011;11380;50.822;15.790;2023-06-22T18:04:57;85.90;;;66.47;;
22425;SDS011;11380;50.822;15.790;2023-06-22T18:10:09;84.37;;;65.90;;
22425;SDS011;11380;50.822;15.790;2023-06-22T18:15:16;83.47;;;66.47;;
22425;SDS011;11380;50.822;15.790;2023-06-22T18:20:24;83.73;;;65.13;;
22425;SDS011;11380;50.822;15.790;2023-06-22T18:25:32;83.62;;;65.52;;
22425;SDS011;11380;50.822;15.790;2023-06-22T18:30:41;88.15;;;66.75;;
22425;SDS011;11380;50.822;15.790;2023-06-22T18:35:49;85.20;;;66.13;;
22425;SDS011;11380;50.822;15.790;2023-06-22T18:40:57;85.13;;;65.57;;
22425;SDS011;11380;50.822;15.790;2023-06-22T18:46:52;83.23;;;65.57;;
22425;SDS011;11380;50.822;15.790;2023-06-22T18:51:52;86.32;;;65.60;;
22425;SDS011;11380;50.822;15.790;2023-06-22T19:07:17;81.60;;;64.60;;
22425;SDS011;11380;50.822;15.790;2023-06-22T19:12:26;85.67;;;65.32;;
22425;SDS011;11380;50.822;15.790;2023-06-22T19:17:33;83.00;;;64.80;;
22425;SDS011;11380;50.822;15.790;2023-06-22T19:22:47;86.93;;;65.03;;
22425;SDS011;11380;50.822;15.790;2023-06-22T19:28:02;84.07;;;65.00;;
22425;SDS011;11380;50.822;15.790;2023-06-22T19:33:12;82.00;;;64.13;;
22425;SDS011;11380;50.822;15.790;2023-06-22T19:38:22;81.30;;;64.10;;
22425;SDS011;11380;50.822;15.790;2023-06-22T19:43:31;82.02;;;65.45;;
22425;SDS011;11380;50.822;15.790;2023-06-22T19:48:39;83.47;;;65.50;;
22425;SDS011;11380;50.822;15.790;2023-06-22T19:53:48;83.67;;;64.97;;
22425;SDS011;11380;50.822;15.790;2023-06-22T19:58:56;83.03;;;65.67;;
22425;SDS011;11380;50.822;15.790;2023-06-22T20:04:04;82.83;;;64.83;;
22425;SDS011;11380;50.822;15.790;2023-06-22T20:09:13;81.17;;;66.28;;
22425;SDS011;11380;50.822;15.790;2023-06-22T20:14:20;83.77;;;65.83;;
22425;SDS011;11380;50.822;15.790;2023-06-22T20:19:37;81.80;;;65.92;;
22425;SDS011;11380;50.822;15.790;2023-06-22T20:24:45;83.50;;;65.50;;
22425;SDS011;11380;50.822;15.790;2023-06-22T20:29:52;85.03;;;65.55;;
22425;SDS011;11380;50.822;15.790;2023-06-22T20:35:01;85.20;;;65.12;;
22425;SDS011;11380;50.822;15.790;2023-06-22T20:40:10;81.70;;;64.40;;
22425;SDS011;11380;50.822;15.790;2023-06-22T20:45:18;81.20;;;63.37;;
22425;SDS011;11380;50.822;15.790;2023-06-22T20:50:26;80.50;;;64.53;;
22425;SDS011;11380;50.822;15.790;2023-06-22T20:55:37;82.82;;;64.58;;
22425;SDS011;11380;50.822;15.790;2023-06-22T21:00:45;82.45;;;64.80;;
22425;SDS011;11380;50.822;15.790;2023-06-22T21:05:56;81.90;;;64.57;;
22425;SDS011;11380;50.822;15.790;2023-06-22T21:11:04;82.17;;;63.90;;
22425;SDS011;11380;50.822;15.790;2023-06-22T21:16:11;82.23;;;63.83;;
22425;SDS011;11380;50.822;15.790;2023-06-22T21:21:19;81.67;;;64.63;;
22425;SDS011;11380;50.822;15.790;2023-06-22T21:26:26;82.80;;;65.28;;
22425;SDS011;11380;50.822;15.790;2023-06-22T21:31:33;83.07;;;64.03;;
22425;SDS011;11380;50.822;15.790;2023-06-22T21:36:40;83.47;;;62.97;;
22425;SDS011;11380;50.822;15.790;2023-06-22T21:41:47;78.03;;;62.63;;
22425;SDS011;11380;50.822;15.790;2023-06-22T21:46:54;83.43;;;63.93;;
22425;SDS011;11380;50.822;15.790;2023-06-22T21:52:03;80.80;;;63.90;;
22425;SDS011;11380;50.822;15.790;2023-06-22T21:57:13;80.03;;;62.63;;
22425;SDS011;11380;50.822;15.790;2023-06-22T22:02:20;81.55;;;63.13;;
22425;SDS011;11380;50.822;15.790;2023-06-22T22:07:28;81.20;;;64.53;;
22425;SDS011;11380;50.822;15.790;2023-06-22T22:12:35;81.40;;;63.45;;
22425;SDS011;11380;50.822;15.790;2023-06-22T22:17:42;80.35;;;62.80;;
22425;SDS011;11380;50.822;15.790;2023-06-22T22:22:50;81.67;;;64.30;;
22425;SDS011;11380;50.822;15.790;2023-06-22T22:27:57;82.33;;;63.77;;
22425;SDS011;11380;50.822;15.790;2023-06-22T22:33:04;82.40;;;65.20;;
22425;SDS011;11380;50.822;15.790;2023-06-22T22:38:15;81.22;;;63.63;;
22425;SDS011;11380;50.822;15.790;2023-06-22T22:43:21;80.10;;;63.73;;
22425;SDS011;11380;50.822;15.790;2023-06-22T22:48:28;80.28;;;62.62;;
22425;SDS011;11380;50.822;15.790;2023-06-22T22:53:34;85.57;;;64.12;;
22425;SDS011;11380;50.822;15.790;2023-06-22T22:58:41;81.17;;;64.17;;
22425;SDS011;11380;50.822;15.790;2023-06-22T23:03:48;79.43;;;61.93;;
22425;SDS011;11380;50.822;15.790;2023-06-22T23:08:57;83.00;;;65.60;;
22425;SDS011;11380;50.822;15.790;2023-06-22T23:14:04;83.80;;;65.03;;
22425;SDS011;11380;50.822;15.790;2023-06-22T23:19:11;85.67;;;66.73;;
22425;SDS011;11380;50.822;15.790;2023-06-22T23:24:20;85.44;;;65.80;;
22425;SDS011;11380;50.822;15.790;2023-06-22T23:29:27;82.90;;;65.78;;
22425;SDS011;11380;50.822;15.790;2023-06-22T23:34:35;81.42;;;65.17;;
22425;SDS011;11380;50.822;15.790;2023-06-22T23:39:42;81.77;;;64.43;;
22425;SDS011;11380;50.822;15.790;2023-06-22T23:44:49;83.63;;;65.60;;
22425;SDS011;11380;50.822;15.790;2023-06-22T23:49:58;82.97;;;65.10;;
22425;SDS011;11380;50.822;15.790;2023-06-22T23:55:05;82.67;;;65.77;;
